Terminal Aerodrome Forecast
Issued by NWS

Home | Current Version | Previous Version | Text Only | Print | Product List | Glossary On
Versions: 1 2 3 4 5 6 7 8 9 10 11 12 13 14 15 16 17 18 19 20 21 22 23 24 25 26 27 28
000
FTUS45 KGJT 040521
TAFVEL
TAF
KVEL 040521Z 0406/0506 36003KT P6SM SKC
     FM041400 VRB03KT P6SM SKC
     FM041900 22010G20KT P6SM FEW140
     FM050200 33005KT P6SM FEW150=

USA.gov is the U.S. government's official web portal to all federal, state and local government web resources and services.